Hauptseite
METAR-TAF:

METAR-TAF

Flughäfen :

Tarawa, Kiribati

Flughafen Bonriki

Breite: 01-21N, Länge: 172-55E, Höhe: 2 m

Beobachtung

Neuester Wetterbericht von vor 13 Minuten, um 03:00 UTC
Wind 19 kt aus Ost
Temperatur 30°C
Luftfeuchtigkeit 79%
Luftdruck 1004 hPa
Sichtweite 10 km oder mehr
Aufgelockert bewölkt in der Höhe von 2000 ft

METAR: NGTA 190300Z 09019KT 9999 SCT020 30/26 Q1004

Zeit: 17:13 (03:13 UTC)

Prognose

Neuester Wetterbericht von vor 4 Stunden und 12 Minuten, um 23:01 UTC
Gültige Prognose vom 19 um 00 UTC bis 19 um 24 UTC
Wind 20 kt aus Ost
Sichtweite 10 km oder mehr
Aufgelockert bewölkt in der Höhe von 1800 ft
Aufgelockert bewölkt in der Höhe von 10000 ft

TAF: NGTA 182301Z 1900/1924 10020KT 9999 SCT018 SCT100

Wetterbeobachtungen und Prognosen von mehr als 4000 Flughäfen (METAR und TAF Bericht).

Die verfügbaren Stationen werden durch gelbe und rote Markierungen auf der Karte dargestellt.

Führen Sie die Maus auf sie, um den Namen der Station zu sehen.

Darauf klicken, um die Beobachtung von Wetterbeobachtungen und Prognosen zu sehen.

Um die Karte zu ändern : klicken Sie auf den grünen Tasten mit einem schwarzen Kreuz Zum Vergrößern, auf den grünen Button mit einem Gedankenstrich zu verkleinern, oder auf die grünen Pfeile für benachbarte Karten.


METAR-TAF: